Black Creek, Georgia
Current Conditions -  °F | °C
As of 7:58 PM on Monday 22 Dec 2014 (Local Time) from KLHW Reporting Station
Overcast Overcast  
Wind Chill: 51°   Ceiling: 300
Heat Index: 51°   Visibility: 10mi
Dew Point: 50°   Wind: 6mph
Humidity: 96%   Direction: 40°NE
Pressure: 29.94"   Gusts: NA
Location:  32.121°N, 81.5002°W
Report Text: KLHW 230058Z AUTO 04005KT 10SM OVC003 11/10 A2994 RMK AO2 SLP142 T01050099
Loading
Personal Weather Stations






























Interactive Weather Map New forecast layout! Learn more

10-Day Weather Forecast

Advertisements
Track Severe Weather on mobile